Time;durP1;ratioP1;P1;durP2;ratioP2;P2;SDS_P1;SDS_P2;PMS_P1;PMS_P2;Temp;Humidity;BMP_temperature;BMP_pressure;BME280_temperature;BME280_humidity;BME280_pressure;Samples;Min_cycle;Max_cycle;Signal;HPM_P1;HPM_P2
2023/02/19 16:54:29;;;;;;;5.10;2.75;;;7.10;99.90;;;;;;5107078;28;20323;-61
2023/02/19 16:56:54;;;;;;;5.80;2.90;;;7.00;99.90;;;;;;5108522;28;20035;-61
2023/02/19 16:59:20;;;;;;;6.82;3.03;;;7.10;99.90;;;;;;5108825;28;20027;-61
2023/02/19 17:01:46;;;;;;;5.95;3.47;;;7.10;99.90;;;;;;5109244;28;20028;-60
2023/02/19 17:04:14;;;;;;;7.05;3.80;;;7.20;99.90;;;;;;5108163;28;20362;-62
2023/02/19 17:06:40;;;;;;;6.10;3.42;;;7.30;99.90;;;;;;5097046;28;20088;-60
2023/02/19 17:09:07;;;;;;;6.45;3.42;;;7.30;99.90;;;;;;5088905;28;20025;-62
2023/02/19 17:11:33;;;;;;;6.32;2.95;;;7.40;99.90;;;;;;5088878;28;20051;-62
2023/02/19 17:13:59;;;;;;;6.10;3.10;;;7.40;99.90;;;;;;5088968;28;20493;-62
2023/02/19 17:16:27;;;;;;;4.07;2.30;;;7.40;99.90;;;;;;5088271;28;20069;-62
2023/02/19 17:18:54;;;;;;;7.38;2.83;;;7.40;99.90;;;;;;5088068;28;20024;-63
2023/02/19 17:21:22;;;;;;;5.82;3.20;;;7.40;99.90;;;;;;5088319;28;20013;-60
2023/02/19 17:23:48;;;;;;;5.93;3.10;;;7.40;99.90;;;;;;5101828;28;20024;-62
2023/02/19 17:26:23;;;;;;;5.07;2.88;;;7.40;99.90;;;;;;5108770;28;20091;-62
2023/02/19 17:28:49;;;;;;;6.72;3.67;;;7.40;99.90;;;;;;5108632;28;20024;-61
2023/02/19 17:31:15;;;;;;;5.82;3.05;;;7.40;99.90;;;;;;5108128;28;20038;-62
2023/02/19 17:33:41;;;;;;;6.70;3.95;;;7.40;99.90;;;;;;5108242;28;20204;-60
2023/02/19 17:36:14;;;;;;;6.93;3.38;;;7.40;99.90;;;;;;5108894;28;20027;-61
2023/02/19 17:38:40;;;;;;;4.50;2.90;;;7.30;99.90;;;;;;5087630;28;20843;-61
2023/02/19 17:41:06;;;;;;;5.28;3.13;;;7.30;99.90;;;;;;5088235;28;20023;-60
2023/02/19 17:43:31;;;;;;;8.23;4.30;;;7.40;99.90;;;;;;5101548;28;20103;-61
2023/02/19 17:45:57;;;;;;;9.93;5.32;;;7.40;99.90;;;;;;5108033;28;20035;-60
2023/02/19 17:48:22;;;;;;;12.93;6.60;;;7.40;99.90;;;;;;5108064;28;20027;-61
2023/02/19 17:50:49;;;;;;;14.05;6.43;;;7.30;99.90;;;;;;5108323;28;20555;-61
2023/02/19 17:53:14;;;;;;;11.13;5.25;;;7.40;99.90;;;;;;5102504;28;20044;-61
2023/02/19 17:55:40;;;;;;;7.22;4.60;;;7.40;99.90;;;;;;5086234;28;20620;-60
2023/02/19 17:58:06;;;;;;;8.63;4.30;;;7.40;99.90;;;;;;5087987;28;20028;-60
2023/02/19 18:00:31;;;;;;;6.00;3.83;;;7.30;99.90;;;;;;5086951;28;20020;-59
2023/02/19 18:02:57;;;;;;;5.88;3.47;;;7.30;99.90;;;;;;5098197;28;20024;-58
2023/02/19 18:05:23;;;;;;;5.40;3.10;;;7.30;99.90;;;;;;5096471;28;20030;-55
2023/02/19 18:07:49;;;;;;;6.70;3.75;;;7.30;99.90;;;;;;5093898;28;20020;-58
2023/02/19 18:10:16;;;;;;;8.93;4.88;;;7.30;99.90;;;;;;5094403;28;20069;-61
2023/02/19 18:12:42;;;;;;;7.15;4.25;;;7.30;99.90;;;;;;5094152;28;20039;-59
2023/02/19 18:15:14;;;;;;;9.02;4.88;;;7.20;99.90;;;;;;5061374;28;20393;-60
2023/02/19 18:17:39;;;;;;;;;;;7.20;99.90;;;;;;5073511;28;20028;-60
2023/02/19 18:20:06;;;;;;;7.82;4.45;;;7.20;99.90;;;;;;5093684;28;19911;-60
2023/02/19 18:22:31;;;;;;;10.30;5.22;;;7.20;99.90;;;;;;5084820;28;20383;-61
2023/02/19 18:24:57;;;;;;;7.80;4.68;;;7.20;99.90;;;;;;5073960;28;20033;-60
2023/02/19 18:27:23;;;;;;;7.70;4.13;;;7.20;99.90;;;;;;5072821;28;20021;-60
2023/02/19 18:29:50;;;;;;;7.45;4.65;;;7.20;99.90;;;;;;5074837;28;20107;-57
2023/02/19 18:32:16;;;;;;;7.47;4.60;;;7.20;99.90;;;;;;5073367;28;20496;-61
2023/02/19 18:34:42;;;;;;;8.82;5.13;;;7.30;99.90;;;;;;5071851;28;20032;-61
2023/02/19 18:37:07;;;;;;;9.35;5.10;;;7.30;99.90;;;;;;5073185;28;20030;-63
2023/02/19 18:39:33;;;;;;;10.32;4.90;;;7.30;99.90;;;;;;5072894;28;20032;-62
2023/02/19 18:41:59;;;;;;;10.80;5.68;;;7.30;99.90;;;;;;5078310;28;20026;-61
2023/02/19 18:44:25;;;;;;;9.45;5.32;;;7.20;99.90;;;;;;5092768;28;20099;-62
2023/02/19 18:46:52;;;;;;;12.23;5.68;;;7.20;99.90;;;;;;5093892;28;20154;-62
2023/02/19 18:49:18;;;;;;;10.10;5.57;;;7.20;99.90;;;;;;5092905;28;20055;-62
2023/02/19 18:51:45;;;;;;;9.15;5.65;;;7.20;99.90;;;;;;5075037;28;20036;-61
2023/02/19 18:54:10;;;;;;;12.77;6.13;;;7.20;99.90;;;;;;5073345;28;20497;-63
2023/02/19 18:56:43;;;;;;;9.63;6.03;;;7.20;99.90;;;;;;5072684;28;20062;-62
2023/02/19 18:59:10;;;;;;;10.27;5.97;;;7.10;99.90;;;;;;5073445;28;20303;-63
2023/02/19 19:01:35;;;;;;;11.77;6.57;;;7.10;99.90;;;;;;5074570;28;20023;-62
2023/02/19 19:04:01;;;;;;;11.82;5.90;;;7.10;99.90;;;;;;5072896;28;20024;-63
2023/02/19 19:06:27;;;;;;;8.65;4.88;;;7.10;99.90;;;;;;5072946;28;20062;-61
2023/02/19 19:08:53;;;;;;;8.48;4.65;;;7.10;99.90;;;;;;5073285;28;20462;-62
2023/02/19 19:11:19;;;;;;;9.20;4.60;;;7.10;99.90;;;;;;5088673;28;20115;-63
2023/02/19 19:13:45;;;;;;;7.20;4.53;;;7.10;99.90;;;;;;5081519;28;20046;-61
2023/02/19 19:16:11;;;;;;;10.38;4.47;;;7.10;99.90;;;;;;5083220;28;20041;-64
2023/02/19 19:18:37;;;;;;;8.25;4.55;;;7.00;99.90;;;;;;5078852;28;20485;-63
2023/02/19 19:21:04;;;;;;;8.60;4.78;;;7.10;99.90;;;;;;5093109;28;20073;-63
2023/02/19 19:23:30;;;;;;;10.02;4.32;;;7.10;99.90;;;;;;5092036;28;20112;-62
2023/02/19 19:25:56;;;;;;;8.88;4.57;;;7.10;99.90;;;;;;5085408;28;20028;-62
2023/02/19 19:28:22;;;;;;;8.73;4.68;;;7.00;99.90;;;;;;5072662;28;20047;-61
2023/02/19 19:30:47;;;;;;;7.53;4.25;;;7.00;99.90;;;;;;5072604;28;20021;-61
2023/02/19 19:33:13;;;;;;;9.25;4.03;;;7.00;99.90;;;;;;5088843;28;20040;-64
2023/02/19 19:35:38;;;;;;;8.15;3.75;;;7.00;99.90;;;;;;5090826;28;20138;-63
2023/02/19 19:38:04;;;;;;;8.63;4.45;;;7.00;99.90;;;;;;5092362;28;20012;-63
2023/02/19 19:40:30;;;;;;;7.82;4.20;;;7.00;99.90;;;;;;5092902;28;20024;-62
2023/02/19 19:42:55;;;;;;;7.10;3.60;;;6.90;99.90;;;;;;5092723;28;20020;-61
2023/02/19 19:45:21;;;;;;;7.53;3.85;;;6.90;99.90;;;;;;5091884;28;20032;-62
2023/02/19 19:47:47;;;;;;;5.82;3.45;;;6.80;99.90;;;;;;5091504;28;20016;-62
2023/02/19 19:50:16;;;;;;;7.90;3.70;;;6.80;99.90;;;;;;5091347;28;20066;-62
2023/02/19 19:52:43;;;;;;;6.68;3.53;;;6.70;99.90;;;;;;5091850;28;20096;-60
2023/02/19 19:55:09;;;;;;;5.75;3.15;;;6.60;99.90;;;;;;5091535;28;20062;-61
2023/02/19 19:57:34;;;;;;;8.50;4.45;;;6.50;99.90;;;;;;5092439;28;20024;-61
2023/02/19 20:00:00;;;;;;;6.63;3.50;;;6.40;99.90;;;;;;5092031;28;20598;-61
2023/02/19 20:02:26;;;;;;;6.97;4.07;;;6.40;99.90;;;;;;5092272;28;20039;-60
2023/02/19 20:04:52;;;;;;;7.45;3.53;;;6.30;99.90;;;;;;5090165;28;20074;-61
2023/02/19 20:07:18;;;;;;;7.38;3.47;;;6.20;99.90;;;;;;5092132;28;20024;-60
2023/02/19 20:09:49;;;;;;;6.05;3.60;;;6.10;99.90;;;;;;5087899;28;20381;-62
2023/02/19 20:12:16;;;;;;;7.75;3.05;;;6.10;99.90;;;;;;5071044;28;20428;-61
2023/02/19 20:14:45;;;;;;;6.80;3.55;;;6.10;99.90;;;;;;5070981;28;20024;-61
2023/02/19 20:17:11;;;;;;;6.57;3.80;;;6.00;99.90;;;;;;5072124;28;20052;-61
2023/02/19 20:19:37;;;;;;;8.40;4.03;;;6.00;99.90;;;;;;5069709;28;20024;-61
2023/02/19 20:22:03;;;;;;;8.13;4.15;;;6.00;99.90;;;;;;5072031;28;20031;-61
2023/02/19 20:24:29;;;;;;;8.82;4.07;;;5.90;99.90;;;;;;5071489;28;21797;-62
2023/02/19 20:27:00;;;;;;;9.05;4.32;;;5.90;99.90;;;;;;5070958;28;20931;-61
2023/02/19 20:29:28;;;;;;;7.10;4.28;;;5.90;99.90;;;;;;5071479;28;20066;-61
2023/02/19 20:31:57;;;;;;;6.40;3.80;;;5.80;99.90;;;;;;5072816;28;20095;-61
2023/02/19 20:34:23;;;;;;;6.25;3.85;;;5.80;99.90;;;;;;5069756;28;20032;-61
